createdAt,value
2022-12-24T00:01:37.793Z,8.68
2022-12-24T00:04:06.258Z,8.70
2022-12-24T00:06:34.561Z,8.72
2022-12-24T00:09:03.472Z,8.73
2022-12-24T00:11:32.026Z,8.73
2022-12-24T00:14:00.115Z,8.73
2022-12-24T00:16:28.654Z,8.72
2022-12-24T00:18:56.787Z,8.70
2022-12-24T00:21:24.787Z,8.70
2022-12-24T00:23:53.097Z,8.71
2022-12-24T00:26:21.287Z,8.73
2022-12-24T00:28:49.780Z,8.73
2022-12-24T00:31:19.577Z,8.72
2022-12-24T00:33:48.077Z,8.72
2022-12-24T00:36:16.884Z,8.72
2022-12-24T00:38:45.764Z,8.73
2022-12-24T00:41:33.360Z,8.73
2022-12-24T00:44:07.024Z,8.76
2022-12-24T00:46:35.449Z,8.81
2022-12-24T00:49:04.946Z,8.85
2022-12-24T00:51:34.303Z,8.89
2022-12-24T00:54:02.817Z,8.90
2022-12-24T00:56:31.171Z,8.89
2022-12-24T00:58:59.502Z,8.90
2022-12-24T01:01:27.891Z,8.90
2022-12-24T01:04:14.622Z,8.93
2022-12-24T01:06:43.186Z,8.95
2022-12-24T01:09:11.407Z,8.98
2022-12-24T01:11:39.752Z,8.99
2022-12-24T01:14:08.040Z,9.01
2022-12-24T01:16:36.126Z,9.02
2022-12-24T01:19:04.411Z,9.02
2022-12-24T01:21:32.396Z,9.02
2022-12-24T01:24:00.647Z,9.02
2022-12-24T01:26:28.614Z,9.01
2022-12-24T01:28:57.770Z,9.01
2022-12-24T01:31:25.862Z,9.04
2022-12-24T01:33:54.225Z,9.05
2022-12-24T01:36:22.376Z,9.04
2022-12-24T01:38:50.374Z,9.04
2022-12-24T01:41:39.842Z,9.03
2022-12-24T01:44:18.195Z,9.02
2022-12-24T01:46:47.026Z,9.05
2022-12-24T01:49:16.814Z,9.07
2022-12-24T01:51:52.283Z,9.09
2022-12-24T01:54:39.871Z,9.10
2022-12-24T01:57:13.927Z,9.11
2022-12-24T01:59:46.374Z,9.11
2022-12-24T02:02:14.698Z,9.11
2022-12-24T02:05:05.572Z,9.11
2022-12-24T02:07:34.563Z,9.11
2022-12-24T02:10:05.834Z,9.11
2022-12-24T02:12:36.390Z,9.11
2022-12-24T02:15:07.501Z,9.11
2022-12-24T02:17:40.657Z,9.12
2022-12-24T02:20:37.771Z,9.11
2022-12-24T02:23:19.930Z,9.09
2022-12-24T02:26:13.336Z,9.07
2022-12-24T02:29:26.479Z,9.05
2022-12-24T02:32:09.653Z,9.06
2022-12-24T02:34:46.856Z,9.05
2022-12-24T02:37:25.019Z,9.06
2022-12-24T02:39:59.080Z,9.07
2022-12-24T02:42:36.403Z,9.06
2022-12-24T02:45:33.000Z,9.05
2022-12-24T02:48:01.497Z,9.06
2022-12-24T02:50:29.505Z,9.07
2022-12-24T02:52:57.662Z,9.04
2022-12-24T02:55:31.950Z,9.02
2022-12-24T02:58:15.628Z,9.02
2022-12-24T03:00:50.945Z,9.01
2022-12-24T03:03:25.212Z,8.97
2022-12-24T03:06:06.643Z,8.87
2022-12-24T03:08:50.779Z,8.80
2022-12-24T03:11:19.004Z,8.76
2022-12-24T03:13:49.580Z,8.79
2022-12-24T03:16:23.534Z,8.82
2022-12-24T03:18:53.968Z,8.81
2022-12-24T03:21:35.641Z,8.81
2022-12-24T03:24:04.018Z,8.81
2022-12-24T03:26:33.685Z,8.82
2022-12-24T03:29:06.646Z,8.82
2022-12-24T03:31:42.223Z,8.81
2022-12-24T03:34:11.493Z,8.81
2022-12-24T03:36:40.460Z,8.83
2022-12-24T03:39:09.482Z,8.83
2022-12-24T03:41:38.083Z,8.85
2022-12-24T03:44:06.335Z,8.87
2022-12-24T03:46:34.511Z,8.88
2022-12-24T03:49:02.796Z,8.89
2022-12-24T03:51:31.200Z,8.89
2022-12-24T03:53:59.982Z,8.90
2022-12-24T03:56:28.012Z,8.89
2022-12-24T03:58:55.997Z,8.87
2022-12-24T04:01:24.456Z,8.86
2022-12-24T04:03:52.605Z,8.87
2022-12-24T04:06:20.785Z,8.88
2022-12-24T04:08:49.168Z,8.89
2022-12-24T04:11:17.497Z,8.90
2022-12-24T04:13:45.573Z,8.91
2022-12-24T04:16:15.785Z,8.91
2022-12-24T04:18:44.609Z,8.90
2022-12-24T04:21:13.419Z,8.88
2022-12-24T04:23:42.479Z,8.87
2022-12-24T04:26:13.597Z,8.86
2022-12-24T04:28:42.899Z,8.86
2022-12-24T04:31:16.376Z,8.86
2022-12-24T04:33:45.705Z,8.87
2022-12-24T04:36:17.309Z,8.90
2022-12-24T04:38:46.887Z,8.91
2022-12-24T04:41:23.846Z,8.92
2022-12-24T04:43:54.828Z,8.96
2022-12-24T04:46:30.545Z,8.98
2022-12-24T04:48:59.465Z,8.99
2022-12-24T04:51:28.662Z,8.99
2022-12-24T04:53:57.600Z,9.02
2022-12-24T04:56:28.959Z,9.03
2022-12-24T04:58:59.134Z,9.04
2022-12-24T05:01:30.405Z,9.04
2022-12-24T05:03:58.741Z,9.04
2022-12-24T05:06:30.674Z,9.04
2022-12-24T05:08:59.814Z,9.01
2022-12-24T05:11:28.716Z,9.00
2022-12-24T05:13:57.006Z,9.00
2022-12-24T05:16:25.254Z,9.01
2022-12-24T05:18:54.101Z,8.99
2022-12-24T05:21:24.444Z,8.97
2022-12-24T05:24:12.203Z,8.97
2022-12-24T05:26:50.267Z,8.97
2022-12-24T05:29:19.001Z,8.97
2022-12-24T05:31:47.432Z,8.95
2022-12-24T05:34:16.813Z,8.94
2022-12-24T05:36:45.527Z,8.95
2022-12-24T05:39:16.898Z,8.95
2022-12-24T05:41:45.922Z,8.97
2022-12-24T05:44:15.102Z,8.97
2022-12-24T05:46:44.446Z,8.98
2022-12-24T05:49:13.053Z,8.99
2022-12-24T05:51:41.525Z,9.00
2022-12-24T05:54:10.856Z,9.00
2022-12-24T05:56:39.152Z,9.00
2022-12-24T05:59:07.441Z,8.97
2022-12-24T06:01:35.746Z,8.95
2022-12-24T06:04:04.241Z,8.93
2022-12-24T06:06:32.542Z,8.91
2022-12-24T06:09:00.637Z,8.89
2022-12-24T06:11:30.407Z,8.87
2022-12-24T06:13:58.645Z,8.84
2022-12-24T06:16:27.332Z,8.82
2022-12-24T06:18:55.400Z,8.81
2022-12-24T06:21:23.455Z,8.79
2022-12-24T06:23:51.895Z,8.77
2022-12-24T06:26:22.892Z,8.74
2022-12-24T06:28:52.129Z,8.70
2022-12-24T06:31:23.783Z,8.67
2022-12-24T06:33:52.899Z,8.62
2022-12-24T06:36:24.425Z,8.62
2022-12-24T06:38:54.893Z,8.62
2022-12-24T06:41:23.817Z,8.62
2022-12-24T06:43:53.169Z,8.64
2022-12-24T06:46:21.762Z,8.65
2022-12-24T06:48:50.348Z,8.63
2022-12-24T06:51:22.204Z,8.64
2022-12-24T06:53:53.336Z,8.64
2022-12-24T06:56:22.229Z,8.62
2022-12-24T06:58:50.461Z,8.62
2022-12-24T07:01:20.368Z,8.60
2022-12-24T07:03:48.976Z,8.59
2022-12-24T07:06:35.572Z,8.58
2022-12-24T07:09:03.747Z,8.57
2022-12-24T07:11:31.788Z,8.52
2022-12-24T07:13:59.987Z,8.49
2022-12-24T07:16:28.415Z,8.48
2022-12-24T07:18:56.467Z,8.45
2022-12-24T07:21:24.497Z,8.46
2022-12-24T07:23:52.784Z,8.45
2022-12-24T07:26:20.931Z,8.43
2022-12-24T07:28:49.161Z,8.42
2022-12-24T07:31:17.202Z,8.44
2022-12-24T07:33:45.248Z,8.44
2022-12-24T07:36:21.640Z,8.42
2022-12-24T07:38:49.971Z,8.38
2022-12-24T07:41:18.122Z,8.35
2022-12-24T07:43:46.455Z,8.31
2022-12-24T07:46:14.622Z,8.27
2022-12-24T07:48:42.755Z,8.25
2022-12-24T07:51:10.945Z,8.25
2022-12-24T07:53:39.212Z,8.22
2022-12-24T07:56:12.507Z,8.22
2022-12-24T07:58:41.530Z,8.23
2022-12-24T08:01:10.020Z,8.23
2022-12-24T08:03:39.160Z,8.23
2022-12-24T08:06:07.333Z,8.24
2022-12-24T08:08:36.524Z,8.24
2022-12-24T08:11:06.863Z,8.27
2022-12-24T08:13:35.253Z,8.32
2022-12-24T08:16:03.686Z,8.36
2022-12-24T08:18:32.008Z,8.38
2022-12-24T08:21:00.293Z,8.38
2022-12-24T08:23:28.258Z,8.39
2022-12-24T08:25:56.241Z,8.40
2022-12-24T08:28:24.513Z,8.41
2022-12-24T08:30:53.055Z,8.43
2022-12-24T08:33:22.437Z,8.46
2022-12-24T08:35:52.839Z,8.47
2022-12-24T08:38:23.195Z,8.49
2022-12-24T08:40:54.033Z,8.50
2022-12-24T08:43:22.898Z,8.51
2022-12-24T08:45:51.914Z,8.53
2022-12-24T08:48:20.434Z,8.54
2022-12-24T08:50:48.400Z,8.55
2022-12-24T08:53:16.453Z,8.57
2022-12-24T08:55:45.857Z,8.58
2022-12-24T08:58:15.836Z,8.59
2022-12-24T09:00:43.787Z,8.62
2022-12-24T09:03:15.352Z,8.66
2022-12-24T09:05:43.340Z,8.69
2022-12-24T09:08:11.430Z,8.73
2022-12-24T09:10:39.971Z,8.79
2022-12-24T09:13:08.142Z,8.87
2022-12-24T09:15:36.280Z,8.93
2022-12-24T09:18:04.835Z,8.96
2022-12-24T09:20:32.909Z,9.00
2022-12-24T09:23:01.729Z,9.01
2022-12-24T09:25:29.757Z,8.99
2022-12-24T09:27:57.951Z,9.01
2022-12-24T09:30:26.251Z,9.08
2022-12-24T09:32:54.114Z,9.09
2022-12-24T09:35:22.105Z,9.09
2022-12-24T09:38:02.765Z,9.07
2022-12-24T09:40:39.723Z,9.09
2022-12-24T09:43:17.764Z,9.11
2022-12-24T09:46:10.924Z,9.12
2022-12-24T09:48:46.859Z,9.08
2022-12-24T09:52:06.634Z,9.08
2022-12-24T09:54:47.797Z,9.10
2022-12-24T09:57:26.368Z,9.11
2022-12-24T09:59:55.583Z,9.13
2022-12-24T10:02:23.747Z,9.16
2022-12-24T10:04:51.920Z,9.18
2022-12-24T10:07:34.311Z,9.19
2022-12-24T10:10:43.788Z,9.21
2022-12-24T10:13:16.669Z,9.21
2022-12-24T10:15:59.276Z,9.22
2022-12-24T10:19:02.788Z,9.23
2022-12-24T10:21:49.908Z,9.24
2022-12-24T10:24:53.800Z,9.28
2022-12-24T10:27:32.251Z,9.36
2022-12-24T10:30:04.170Z,9.49
2022-12-24T10:32:35.729Z,9.55
2022-12-24T10:35:17.828Z,9.56
2022-12-24T10:37:48.846Z,9.59
2022-12-24T10:40:28.203Z,9.60
2022-12-24T10:42:56.553Z,9.58
2022-12-24T10:45:28.618Z,9.61
2022-12-24T10:48:05.025Z,9.62
2022-12-24T10:50:41.354Z,9.63
2022-12-24T10:53:36.959Z,9.63
2022-12-24T10:56:09.796Z,9.65
2022-12-24T10:58:44.809Z,9.70
2022-12-24T11:01:14.378Z,9.74
2022-12-24T11:03:43.131Z,9.76
2022-12-24T11:06:14.444Z,9.79
2022-12-24T11:08:44.026Z,9.82
2022-12-24T11:11:16.208Z,9.83
2022-12-24T11:13:45.939Z,9.84
2022-12-24T11:16:21.101Z,9.88
2022-12-24T11:18:55.108Z,9.92
2022-12-24T11:21:31.534Z,10.46
2022-12-24T11:24:17.798Z,10.93
2022-12-24T11:26:45.766Z,10.88
2022-12-24T11:29:23.414Z,10.72
2022-12-24T11:31:55.457Z,10.57
2022-12-24T11:34:32.869Z,10.43
2022-12-24T11:37:21.146Z,10.31
2022-12-24T11:39:56.243Z,10.21
2022-12-24T11:42:38.452Z,10.16
2022-12-24T11:45:19.147Z,10.15
2022-12-24T11:47:47.420Z,10.14
2022-12-24T11:50:24.169Z,10.14
2022-12-24T11:53:04.180Z,10.14
2022-12-24T11:55:48.775Z,10.13
2022-12-24T11:58:20.326Z,10.13
2022-12-24T12:00:50.947Z,10.16
2022-12-24T12:03:43.963Z,10.16
2022-12-24T12:06:27.930Z,10.17
2022-12-24T12:09:01.024Z,10.18
2022-12-24T12:11:30.437Z,10.16
2022-12-24T12:14:01.829Z,10.15
2022-12-24T12:17:01.470Z,10.15
2022-12-24T12:19:58.624Z,10.17
2022-12-24T12:22:45.172Z,10.22
2022-12-24T12:25:22.892Z,10.24
2022-12-24T12:27:54.943Z,10.26
2022-12-24T12:30:24.529Z,10.30
2022-12-24T12:33:24.900Z,10.42
2022-12-24T12:35:56.101Z,10.42
2022-12-24T12:38:29.444Z,10.39
2022-12-24T12:41:02.573Z,10.34
2022-12-24T12:43:59.921Z,10.31
2022-12-24T12:47:02.432Z,10.26
2022-12-24T12:49:55.518Z,10.21
2022-12-24T12:52:45.803Z,10.19
2022-12-24T12:55:41.667Z,10.18
2022-12-24T12:58:22.025Z,10.15
2022-12-24T13:00:56.304Z,10.14
2022-12-24T13:03:30.814Z,10.12
2022-12-24T13:06:13.069Z,10.10
2022-12-24T13:08:53.684Z,10.09
2022-12-24T13:11:21.639Z,10.07
2022-12-24T13:14:23.228Z,10.05
2022-12-24T13:17:21.866Z,10.04
2022-12-24T13:20:10.828Z,10.04
2022-12-24T13:22:39.067Z,10.03
2022-12-24T13:25:20.520Z,10.04
2022-12-24T13:27:48.553Z,10.04
2022-12-24T13:30:36.967Z,10.02
2022-12-24T13:33:09.269Z,10.00
2022-12-24T13:35:39.061Z,10.00
2022-12-24T13:38:31.163Z,9.98
2022-12-24T13:41:40.646Z,9.98
2022-12-24T13:44:18.929Z,9.96
2022-12-24T13:46:52.989Z,9.94
2022-12-24T13:49:52.560Z,9.92
2022-12-24T13:52:27.906Z,9.89
2022-12-24T13:54:59.316Z,9.89
2022-12-24T13:57:27.310Z,9.87
2022-12-24T14:00:08.863Z,9.85
2022-12-24T14:02:52.260Z,9.84
2022-12-24T14:05:32.544Z,9.82
2022-12-24T14:08:03.491Z,9.80
2022-12-24T14:10:45.713Z,9.75
2022-12-24T14:13:38.445Z,9.69
2022-12-24T14:16:18.926Z,9.63
2022-12-24T14:18:59.136Z,9.57
2022-12-24T14:21:35.191Z,9.53
2022-12-24T14:24:07.934Z,9.48
2022-12-24T14:27:02.210Z,9.45
2022-12-24T14:29:37.645Z,9.41
2022-12-24T14:32:15.007Z,9.38
2022-12-24T14:34:43.538Z,9.35
2022-12-24T14:37:13.907Z,9.45
2022-12-24T14:39:49.342Z,9.64
2022-12-24T14:42:42.306Z,9.66
2022-12-24T14:45:28.416Z,9.57
2022-12-24T14:48:11.837Z,9.46
2022-12-24T14:51:09.628Z,9.37
2022-12-24T14:54:07.319Z,9.31
2022-12-24T14:56:35.598Z,9.24
2022-12-24T14:59:19.198Z,9.19
2022-12-24T15:01:48.055Z,9.14
2022-12-24T15:04:18.180Z,9.12
2022-12-24T15:06:53.846Z,9.09
2022-12-24T15:09:29.437Z,9.13
2022-12-24T15:12:00.883Z,9.09
2022-12-24T15:14:33.910Z,9.04
2022-12-24T15:17:04.666Z,8.99
2022-12-24T15:19:39.538Z,8.97
2022-12-24T15:22:24.001Z,8.95
2022-12-24T15:24:52.368Z,8.89
2022-12-24T15:27:23.359Z,8.86
2022-12-24T15:29:57.592Z,8.81
2022-12-24T15:32:25.624Z,8.77
2022-12-24T15:34:55.683Z,8.73
2022-12-24T15:37:23.760Z,8.67
2022-12-24T15:39:57.263Z,8.64
2022-12-24T15:42:27.646Z,8.63
2022-12-24T15:44:55.552Z,8.62
2022-12-24T15:47:30.064Z,8.60
2022-12-24T15:49:58.135Z,8.56
2022-12-24T15:52:26.361Z,8.53
2022-12-24T15:54:58.171Z,8.50
2022-12-24T15:57:32.455Z,8.47
2022-12-24T16:00:03.660Z,8.47
2022-12-24T16:02:45.827Z,8.47
2022-12-24T16:05:26.356Z,8.45
2022-12-24T16:08:16.833Z,8.42
2022-12-24T16:10:48.054Z,8.37
2022-12-24T16:13:21.636Z,8.33
2022-12-24T16:15:58.134Z,8.28
2022-12-24T16:18:28.304Z,8.25
2022-12-24T16:20:57.477Z,8.25
2022-12-24T16:23:40.081Z,8.25
2022-12-24T16:26:08.286Z,8.26
2022-12-24T16:28:36.717Z,8.25
2022-12-24T16:31:05.553Z,8.24
2022-12-24T16:33:34.313Z,8.28
2022-12-24T16:36:03.430Z,8.40
2022-12-24T16:38:52.132Z,8.35
2022-12-24T16:41:20.152Z,8.24
2022-12-24T16:43:51.335Z,8.15
2022-12-24T16:46:19.777Z,8.06
2022-12-24T16:48:49.365Z,8.00
2022-12-24T16:51:17.296Z,7.95
2022-12-24T16:53:45.317Z,7.90
2022-12-24T16:56:13.735Z,7.86
2022-12-24T16:58:41.955Z,7.83
2022-12-24T17:01:10.038Z,7.80
2022-12-24T17:03:38.388Z,7.77
2022-12-24T17:06:07.592Z,7.73
2022-12-24T17:08:35.895Z,7.72
2022-12-24T17:11:04.014Z,7.70
2022-12-24T17:13:32.240Z,7.70
2022-12-24T17:16:02.142Z,7.70
2022-12-24T17:18:30.109Z,7.68
2022-12-24T17:21:00.718Z,7.68
2022-12-24T17:23:28.687Z,7.68
2022-12-24T17:25:58.057Z,7.69
2022-12-24T17:28:26.603Z,7.71
2022-12-24T17:30:54.609Z,7.73
2022-12-24T17:33:22.512Z,7.74
2022-12-24T17:35:52.179Z,7.73
2022-12-24T17:38:20.093Z,7.71
2022-12-24T17:40:48.289Z,7.71
2022-12-24T17:43:16.230Z,7.70
2022-12-24T17:45:44.643Z,7.70
2022-12-24T17:48:12.984Z,7.71
2022-12-24T17:50:41.102Z,7.73
2022-12-24T17:53:09.428Z,7.73
2022-12-24T17:55:44.759Z,7.73
2022-12-24T17:58:14.216Z,7.73
2022-12-24T18:00:42.495Z,7.76
2022-12-24T18:03:14.311Z,7.79
2022-12-24T18:05:42.401Z,7.78
2022-12-24T18:08:10.336Z,7.78
2022-12-24T18:10:38.390Z,7.76
2022-12-24T18:13:07.233Z,7.70
2022-12-24T18:15:36.912Z,7.65
2022-12-24T18:18:05.122Z,7.62
2022-12-24T18:20:39.606Z,7.61
2022-12-24T18:23:11.094Z,7.59
2022-12-24T18:25:39.062Z,7.56
2022-12-24T18:28:07.046Z,7.51
2022-12-24T18:30:35.064Z,7.46
2022-12-24T18:33:03.342Z,7.44
2022-12-24T18:35:31.415Z,7.39
2022-12-24T18:37:59.538Z,7.34
2022-12-24T18:40:27.514Z,7.29
2022-12-24T18:42:55.562Z,7.25
2022-12-24T18:45:23.626Z,7.21
2022-12-24T18:47:51.461Z,7.18
2022-12-24T18:50:19.685Z,7.15
2022-12-24T18:52:50.632Z,7.12
2022-12-24T18:55:18.504Z,7.10
2022-12-24T18:57:46.783Z,7.09
2022-12-24T19:00:15.029Z,7.07
2022-12-24T19:02:43.191Z,7.07
2022-12-24T19:05:11.598Z,7.07
2022-12-24T19:07:40.291Z,7.09
2022-12-24T19:10:09.044Z,7.08
2022-12-24T19:12:37.322Z,7.07
2022-12-24T19:15:06.353Z,7.08
2022-12-24T19:17:34.838Z,7.08
2022-12-24T19:20:02.927Z,7.08
2022-12-24T19:22:31.096Z,7.12
2022-12-24T19:24:59.116Z,7.14
2022-12-24T19:27:27.343Z,7.13
2022-12-24T19:29:55.492Z,7.10
2022-12-24T19:32:23.765Z,7.08
2022-12-24T19:34:51.971Z,7.04
2022-12-24T19:37:19.909Z,7.02
2022-12-24T19:39:47.861Z,7.02
2022-12-24T19:42:15.771Z,7.02
2022-12-24T19:44:43.700Z,7.02
2022-12-24T19:47:11.712Z,7.03
2022-12-24T19:49:39.610Z,7.00
2022-12-24T19:52:07.725Z,6.96
2022-12-24T19:54:37.135Z,6.95
2022-12-24T19:57:05.230Z,6.96
2022-12-24T19:59:33.432Z,6.95
2022-12-24T20:02:02.119Z,6.89
2022-12-24T20:04:30.690Z,6.85
2022-12-24T20:07:00.723Z,6.84
2022-12-24T20:09:29.304Z,6.84
2022-12-24T20:11:57.137Z,6.82
2022-12-24T20:14:25.262Z,6.83
2022-12-24T20:16:53.516Z,6.82
2022-12-24T20:19:21.926Z,6.82
2022-12-24T20:21:50.187Z,6.82
2022-12-24T20:24:18.157Z,6.80
2022-12-24T20:26:46.432Z,6.75
2022-12-24T20:29:15.138Z,6.72
2022-12-24T20:31:43.465Z,6.69
2022-12-24T20:34:11.625Z,6.66
2022-12-24T20:36:39.628Z,6.65
2022-12-24T20:39:08.232Z,6.66
2022-12-24T20:41:36.391Z,6.66
2022-12-24T20:44:04.976Z,6.65
2022-12-24T20:46:33.600Z,6.63
2022-12-24T20:49:01.807Z,6.56
2022-12-24T20:51:29.861Z,6.52
2022-12-24T20:54:00.350Z,6.50
2022-12-24T20:56:31.037Z,6.47
2022-12-24T20:59:01.939Z,6.47
2022-12-24T21:01:30.524Z,6.47
2022-12-24T21:04:04.347Z,6.44
2022-12-24T21:06:33.843Z,6.43
2022-12-24T21:09:03.100Z,6.40
2022-12-24T21:11:49.445Z,6.39
2022-12-24T21:14:22.736Z,6.40
2022-12-24T21:16:52.660Z,6.42
2022-12-24T21:19:23.444Z,6.43
2022-12-24T21:21:52.028Z,6.43
2022-12-24T21:24:20.153Z,6.39
2022-12-24T21:26:48.634Z,6.36
2022-12-24T21:29:16.897Z,6.33
2022-12-24T21:31:45.333Z,6.36
2022-12-24T21:34:13.805Z,6.34
2022-12-24T21:36:42.830Z,6.30
2022-12-24T21:39:11.382Z,6.30
2022-12-24T21:41:39.682Z,6.30
2022-12-24T21:44:07.626Z,6.32
2022-12-24T21:46:35.624Z,6.32
2022-12-24T21:49:21.802Z,6.34
2022-12-24T21:51:49.799Z,6.35
2022-12-24T21:54:23.892Z,6.39
2022-12-24T21:57:12.097Z,6.43
2022-12-24T21:59:40.566Z,6.43
2022-12-24T22:02:12.211Z,6.43
2022-12-24T22:04:41.107Z,6.41
2022-12-24T22:07:41.694Z,6.40
2022-12-24T22:10:29.743Z,6.38
2022-12-24T22:13:00.284Z,6.37
2022-12-24T22:15:28.229Z,6.37
2022-12-24T22:17:56.268Z,6.34
2022-12-24T22:20:24.780Z,6.30
2022-12-24T22:22:53.082Z,6.26
2022-12-24T22:25:20.988Z,6.21
2022-12-24T22:27:49.305Z,6.15
2022-12-24T22:30:17.520Z,6.11
2022-12-24T22:32:45.653Z,6.09
2022-12-24T22:35:13.883Z,6.04
2022-12-24T22:37:41.826Z,6.01
2022-12-24T22:40:10.974Z,5.96
2022-12-24T22:42:41.072Z,5.93
2022-12-24T22:45:12.591Z,5.88
2022-12-24T22:47:43.610Z,5.84
2022-12-24T22:50:12.833Z,5.80
2022-12-24T22:52:41.049Z,5.75
2022-12-24T22:55:09.297Z,5.70
2022-12-24T22:57:37.262Z,5.65
2022-12-24T23:00:17.199Z,5.63
2022-12-24T23:02:45.339Z,5.60
2022-12-24T23:05:15.202Z,5.57
2022-12-24T23:07:43.522Z,5.55
2022-12-24T23:10:11.493Z,5.52
2022-12-24T23:12:58.107Z,5.48
2022-12-24T23:15:26.400Z,5.45
2022-12-24T23:17:54.554Z,5.41
2022-12-24T23:20:22.437Z,5.37
2022-12-24T23:22:50.443Z,5.33
2022-12-24T23:25:19.158Z,5.29
2022-12-24T23:27:47.353Z,5.26
2022-12-24T23:30:16.337Z,5.22
2022-12-24T23:32:44.290Z,5.17
2022-12-24T23:35:12.660Z,5.15
2022-12-24T23:37:40.655Z,5.13
2022-12-24T23:40:09.585Z,5.12
2022-12-24T23:42:37.481Z,5.11
2022-12-24T23:45:06.024Z,5.09
2022-12-24T23:47:34.253Z,5.07
2022-12-24T23:50:02.249Z,5.06
2022-12-24T23:52:30.454Z,5.07
2022-12-24T23:54:58.339Z,5.06
2022-12-24T23:57:26.578Z,5.02
2022-12-24T23:59:54.574Z,4.96
